createdAt,value
2019-06-08T00:04:00.103Z,14.50
2019-06-08T00:06:35.597Z,9.57
2019-06-08T00:45:57.366Z,12.67
2019-06-08T00:48:33.055Z,15.03
2019-06-08T00:51:04.261Z,12.43
2019-06-08T00:53:38.028Z,12.70
2019-06-08T00:56:11.398Z,11.40
2019-06-08T00:58:43.383Z,12.07
2019-06-08T01:01:22.067Z,18.03
2019-06-08T01:03:52.377Z,11.50
2019-06-08T01:06:29.828Z,11.50
2019-06-08T01:09:04.765Z,11.63
2019-06-08T01:11:37.296Z,13.03
2019-06-08T01:28:02.122Z,16.40
2019-06-08T01:30:34.876Z,12.63
2019-06-08T01:33:06.687Z,18.03
2019-06-08T01:35:40.262Z,18.53
2019-06-08T01:38:13.700Z,19.47
2019-06-08T01:40:47.485Z,17.20
2019-06-08T01:43:21.855Z,22.00
2019-06-08T01:45:57.421Z,19.10
2019-06-08T01:48:32.328Z,18.80
2019-06-08T01:51:08.162Z,21.47
2019-06-08T01:53:40.654Z,22.87
2019-06-08T01:56:12.678Z,30.90
2019-06-08T01:58:44.581Z,35.53
2019-06-08T02:01:17.125Z,33.77
2019-06-08T02:03:49.990Z,41.93
2019-06-08T02:06:24.199Z,29.03
2019-06-08T02:09:00.543Z,15.87
2019-06-08T02:11:33.061Z,13.57
2019-06-08T02:14:05.615Z,10.40
2019-06-08T02:16:37.533Z,20.73
2019-06-08T02:19:10.632Z,14.17
2019-06-08T02:21:42.687Z,24.00
2019-06-08T02:24:15.874Z,27.83
2019-06-08T02:26:48.881Z,15.63
2019-06-08T02:29:21.853Z,19.43
2019-06-08T02:31:54.908Z,9.90
2019-06-08T02:34:28.301Z,10.33
2019-06-08T02:37:02.846Z,12.77
2019-06-08T02:39:35.533Z,4.37
2019-06-08T02:42:08.903Z,10.90
2019-06-08T02:44:41.767Z,9.33
2019-06-08T02:47:16.296Z,11.10
2019-06-08T02:49:47.103Z,9.40
2019-06-08T02:52:19.956Z,14.27
2019-06-08T02:54:55.073Z,8.63
2019-06-08T02:57:30.998Z,5.07
2019-06-08T03:00:04.673Z,4.40
2019-06-08T03:02:40.653Z,4.63
2019-06-08T03:05:14.486Z,9.73
2019-06-08T03:07:48.101Z,7.43
2019-06-08T03:10:22.815Z,6.17
2019-06-08T03:12:56.891Z,12.40
2019-06-08T03:15:32.407Z,3.67
2019-06-08T03:18:06.279Z,7.33
2019-06-08T03:20:40.148Z,8.17
2019-06-08T03:23:12.066Z,10.17
2019-06-08T03:25:52.641Z,6.07
2019-06-08T03:28:20.214Z,4.93
2019-06-08T03:30:55.832Z,8.40
2019-06-08T03:33:28.164Z,13.27
2019-06-08T03:36:02.212Z,7.13
2019-06-08T03:38:37.503Z,5.27
2019-06-08T03:41:10.351Z,5.70
2019-06-08T03:43:43.228Z,11.13
2019-06-08T03:46:17.351Z,14.27
2019-06-08T03:48:50.210Z,4.23
2019-06-08T03:51:24.160Z,9.20
2019-06-08T03:53:58.267Z,7.80
2019-06-08T03:56:29.488Z,2.70
2019-06-08T03:59:02.513Z,12.10
2019-06-08T04:01:37.441Z,5.30
2019-06-08T04:04:11.112Z,4.93
2019-06-08T04:06:45.600Z,3.13
2019-06-08T04:09:17.350Z,2.90
2019-06-08T04:11:51.220Z,3.23
2019-06-08T04:14:25.434Z,1.60
2019-06-08T04:16:58.432Z,9.27
2019-06-08T04:19:30.377Z,2.60
2019-06-08T04:22:02.202Z,5.70
2019-06-08T04:24:35.222Z,2.60
2019-06-08T04:27:09.306Z,6.30
2019-06-08T04:29:43.869Z,5.60
2019-06-08T04:32:15.407Z,1.40
2019-06-08T04:34:48.018Z,3.47
2019-06-08T04:37:20.334Z,1.47
2019-06-08T04:39:54.752Z,3.57
2019-06-08T04:42:26.404Z,1.93
2019-06-08T04:45:00.554Z,2.40
2019-06-08T04:47:33.628Z,2.50
2019-06-08T04:50:21.623Z,1.10
2019-06-08T04:52:40.838Z,2.23
2019-06-08T04:55:15.301Z,5.23
2019-06-08T04:57:48.810Z,3.87
2019-06-08T05:00:22.630Z,6.43
2019-06-08T05:02:54.614Z,6.93
2019-06-08T05:05:26.508Z,2.33
2019-06-08T05:07:58.525Z,2.03
2019-06-08T05:10:33.508Z,7.03
2019-06-08T05:13:07.561Z,2.47
2019-06-08T05:15:43.315Z,4.87
2019-06-08T05:18:14.716Z,4.23
2019-06-08T05:20:49.123Z,2.97
2019-06-08T05:23:22.616Z,3.00
2019-06-08T05:25:55.721Z,9.23
2019-06-08T05:28:28.825Z,6.07
2019-06-08T05:31:00.696Z,6.67
2019-06-08T05:33:36.534Z,3.63
2019-06-08T05:36:09.898Z,2.20
2019-06-08T05:38:43.912Z,5.30
2019-06-08T05:41:19.398Z,3.23
2019-06-08T05:43:51.833Z,1.53
2019-06-08T05:46:27.486Z,6.73
2019-06-08T05:49:01.092Z,3.13
2019-06-08T05:51:32.737Z,3.03
2019-06-08T05:54:06.962Z,4.43
2019-06-08T05:56:39.878Z,2.83
2019-06-08T05:59:12.953Z,4.60
2019-06-08T06:01:46.767Z,4.40
2019-06-08T06:04:20.813Z,4.20
2019-06-08T06:06:53.083Z,3.30
2019-06-08T06:09:24.760Z,3.43
2019-06-08T06:11:56.934Z,1.53
2019-06-08T06:14:29.020Z,2.80
2019-06-08T06:17:02.956Z,2.23
2019-06-08T06:19:35.124Z,1.17
2019-06-08T06:22:07.941Z,3.40
2019-06-08T06:24:43.735Z,3.17
2019-06-08T06:27:16.129Z,5.50
2019-06-08T06:29:49.959Z,2.90
2019-06-08T06:32:25.632Z,3.47
2019-06-08T06:34:59.107Z,2.90
2019-06-08T06:37:31.289Z,4.23
2019-06-08T06:40:04.480Z,2.70
2019-06-08T06:42:37.249Z,5.33
2019-06-08T06:45:10.136Z,5.30
2019-06-08T06:47:42.362Z,4.93
2019-06-08T06:50:15.121Z,6.47
2019-06-08T06:52:49.074Z,2.53
2019-06-08T06:55:25.311Z,2.10
2019-06-08T06:57:56.066Z,5.77
2019-06-08T07:00:32.378Z,4.20
2019-06-08T07:03:05.487Z,4.83
2019-06-08T07:05:38.333Z,1.27
2019-06-08T07:08:10.183Z,2.97
2019-06-08T07:10:44.599Z,7.20
2019-06-08T07:13:17.348Z,3.23
2019-06-08T07:15:54.522Z,3.77
2019-06-08T07:18:26.205Z,7.40
2019-06-08T07:20:59.860Z,6.47
2019-06-08T07:23:34.021Z,4.27
2019-06-08T07:26:05.408Z,1.90
2019-06-08T07:28:40.572Z,2.33
2019-06-08T07:31:13.582Z,1.77
2019-06-08T07:33:46.798Z,5.33
2019-06-08T07:36:20.463Z,2.53
2019-06-08T07:38:53.932Z,2.40
2019-06-08T07:41:28.361Z,2.30
2019-06-08T07:44:03.993Z,1.97
2019-06-08T07:46:39.653Z,2.20
2019-06-08T07:49:11.903Z,5.10
2019-06-08T07:51:58.815Z,2.50
2019-06-08T07:54:22.522Z,3.73
2019-06-08T07:56:57.050Z,1.27
2019-06-08T07:59:29.448Z,3.37
2019-06-08T08:02:02.906Z,5.00
2019-06-08T08:04:35.734Z,13.37
2019-06-08T08:07:08.727Z,12.93
2019-06-08T08:09:42.181Z,2.20
2019-06-08T08:12:15.344Z,3.70
2019-06-08T08:14:51.312Z,4.40
2019-06-08T08:17:23.388Z,2.80
2019-06-08T08:20:02.164Z,2.30
2019-06-08T08:22:39.436Z,1.47
2019-06-08T08:25:19.787Z,1.30
2019-06-08T08:27:55.862Z,8.77
2019-06-08T08:30:31.345Z,12.10
2019-06-08T08:33:03.653Z,1.50
2019-06-08T08:35:38.756Z,3.77
2019-06-08T08:38:18.174Z,1.30
2019-06-08T08:40:53.420Z,3.90
2019-06-08T08:43:28.132Z,2.70
2019-06-08T08:46:01.794Z,3.50
2019-06-08T08:48:34.858Z,6.00
2019-06-08T08:51:08.544Z,1.10
2019-06-08T08:53:41.183Z,2.53
2019-06-08T08:56:18.178Z,2.60
2019-06-08T08:58:52.543Z,2.23
2019-06-08T09:01:28.755Z,4.77
2019-06-08T09:04:05.008Z,1.57
2019-06-08T09:06:39.275Z,3.07
2019-06-08T09:09:12.076Z,3.90
2019-06-08T09:11:48.336Z,3.07
2019-06-08T09:14:18.996Z,4.00
2019-06-08T09:16:53.744Z,2.13
2019-06-08T09:19:27.940Z,2.43
2019-06-08T09:25:27.885Z,3.47
2019-06-08T09:28:04.632Z,10.67
2019-06-08T09:30:38.470Z,3.07
2019-06-08T09:33:14.931Z,1.57
2019-06-08T09:35:53.575Z,2.27
2019-06-08T09:38:28.798Z,4.40
2019-06-08T09:41:05.307Z,3.63
2019-06-08T09:43:39.177Z,4.20
2019-06-08T09:46:12.081Z,10.03
2019-06-08T09:48:44.157Z,4.27
2019-06-08T09:51:18.736Z,3.90
2019-06-08T09:53:54.243Z,3.50
2019-06-08T09:56:30.089Z,2.20
2019-06-08T09:59:08.373Z,2.47
2019-06-08T10:01:38.730Z,2.50
2019-06-08T10:04:12.713Z,1.77
2019-06-08T10:06:47.947Z,2.40
2019-06-08T10:09:23.808Z,5.80
2019-06-08T10:12:01.291Z,1.80
2019-06-08T10:14:32.183Z,2.80
2019-06-08T10:17:08.702Z,6.40
2019-06-08T10:19:40.433Z,1.63
2019-06-08T10:22:13.165Z,8.73
2019-06-08T10:24:48.832Z,4.40
2019-06-08T10:27:21.161Z,3.37
2019-06-08T10:29:53.091Z,3.27
2019-06-08T10:32:28.231Z,1.30
2019-06-08T10:35:07.312Z,1.20
2019-06-08T10:37:39.333Z,3.53
2019-06-08T10:40:13.555Z,3.37
2019-06-08T10:42:48.434Z,1.20
2019-06-08T10:45:23.327Z,3.57
2019-06-08T10:47:59.343Z,5.10
2019-06-08T10:50:33.196Z,7.77
2019-06-08T10:53:10.341Z,13.30
2019-06-08T10:55:40.827Z,52.43
2019-06-08T10:58:14.446Z,2.80
2019-06-08T11:00:48.114Z,5.43
2019-06-08T11:03:21.201Z,2.40
2019-06-08T11:05:54.592Z,5.23
2019-06-08T11:08:27.593Z,1.43
2019-06-08T11:11:01.195Z,3.93
2019-06-08T11:13:33.584Z,4.40
2019-06-08T11:16:06.591Z,5.00
2019-06-08T11:18:38.335Z,4.10
2019-06-08T11:21:48.216Z,1.70
2019-06-08T11:24:24.802Z,1.97
2019-06-08T11:26:57.802Z,2.60
2019-06-08T11:29:31.894Z,2.47
2019-06-08T11:32:04.283Z,1.90
2019-06-08T11:34:38.081Z,2.83
2019-06-08T11:37:13.574Z,2.67
2019-06-08T11:39:49.051Z,3.07
2019-06-08T11:42:24.910Z,2.90
2019-06-08T11:44:58.664Z,2.43
2019-06-08T11:47:30.975Z,1.53
2019-06-08T11:50:02.961Z,5.30
2019-06-08T11:52:38.882Z,3.23
2019-06-08T11:55:13.178Z,1.77
2019-06-08T11:57:44.654Z,3.03
2019-06-08T12:00:30.896Z,2.20
2019-06-08T12:03:02.254Z,4.20
2019-06-08T12:05:33.645Z,2.53
2019-06-08T12:08:06.441Z,1.73
2019-06-08T12:10:41.162Z,5.67
2019-06-08T12:13:17.746Z,2.17
2019-06-08T12:15:50.040Z,1.87
2019-06-08T12:18:23.940Z,6.20
2019-06-08T12:20:58.387Z,7.23
2019-06-08T12:23:30.182Z,1.73
2019-06-08T12:26:01.766Z,2.07
2019-06-08T12:28:34.926Z,2.87
2019-06-08T12:31:12.073Z,2.23
2019-06-08T12:33:41.960Z,3.43
2019-06-08T12:36:15.572Z,6.87
2019-06-08T12:38:48.677Z,2.10
2019-06-08T12:41:23.307Z,1.87
2019-06-08T12:43:58.976Z,2.20
2019-06-08T12:46:31.092Z,2.10
2019-06-08T12:49:02.973Z,4.00
2019-06-08T12:51:36.986Z,5.13
2019-06-08T12:54:12.704Z,1.67
2019-06-08T12:56:44.997Z,3.83
2019-06-08T12:59:22.452Z,3.90
2019-06-08T13:02:22.022Z,2.13
2019-06-08T13:04:57.160Z,6.67
2019-06-08T13:07:31.330Z,2.67
2019-06-08T13:10:04.096Z,1.87
2019-06-08T13:12:40.918Z,4.63
2019-06-08T13:15:14.460Z,3.70
2019-06-08T13:17:50.590Z,2.10
2019-06-08T13:20:22.581Z,3.37
2019-06-08T13:22:57.545Z,1.57
2019-06-08T13:25:39.689Z,4.07
2019-06-08T13:28:12.245Z,3.63
2019-06-08T13:30:58.178Z,4.40
2019-06-08T13:33:43.734Z,4.50
2019-06-08T13:36:19.688Z,4.80
2019-06-08T13:38:51.387Z,5.00
2019-06-08T13:41:29.873Z,4.60
2019-06-08T13:44:02.367Z,2.53
2019-06-08T13:46:52.425Z,6.00
2019-06-08T13:49:43.982Z,4.30
2019-06-08T13:52:34.669Z,3.93
2019-06-08T13:55:34.681Z,2.93
2019-06-08T13:57:50.991Z,4.20
2019-06-08T14:00:38.575Z,4.80
2019-06-08T14:03:13.719Z,3.57
2019-06-08T14:05:49.490Z,4.83
2019-06-08T14:08:40.195Z,3.57
2019-06-08T14:11:14.903Z,3.40
2019-06-08T14:13:48.124Z,3.67
2019-06-08T14:16:26.521Z,5.63
2019-06-08T14:19:04.027Z,3.83
2019-06-08T14:21:41.767Z,2.07
2019-06-08T14:24:14.445Z,3.83
2019-06-08T14:26:48.492Z,2.67
2019-06-08T14:29:22.965Z,5.77
2019-06-08T14:31:57.804Z,1.80
2019-06-08T14:34:31.277Z,3.73
2019-06-08T14:37:04.802Z,4.30
2019-06-08T14:39:38.201Z,4.20
2019-06-08T14:42:09.441Z,3.60
2019-06-08T14:44:41.237Z,5.40
2019-06-08T14:47:14.529Z,4.27
2019-06-08T14:49:48.976Z,6.27
2019-06-08T14:52:24.163Z,2.40
2019-06-08T14:54:58.665Z,4.30
2019-06-08T14:57:32.622Z,4.03
2019-06-08T15:00:09.669Z,3.13
2019-06-08T15:02:39.471Z,3.63
2019-06-08T15:05:11.758Z,7.57
2019-06-08T15:07:43.338Z,1.97
2019-06-08T15:10:18.040Z,4.77
2019-06-08T15:12:49.489Z,3.40
2019-06-08T15:15:23.617Z,5.97
2019-06-08T15:17:58.214Z,7.03
2019-06-08T15:20:32.960Z,7.50
2019-06-08T15:23:08.133Z,6.23
2019-06-08T15:25:38.916Z,2.57
2019-06-08T15:28:14.498Z,6.90
2019-06-08T15:30:46.909Z,3.23
2019-06-08T15:33:21.513Z,2.53
2019-06-08T15:35:54.269Z,4.77
2019-06-08T15:38:26.049Z,8.40
2019-06-08T15:40:58.854Z,4.87
2019-06-08T15:43:34.442Z,2.93
2019-06-08T15:46:04.926Z,2.27
2019-06-08T15:48:38.173Z,4.50
2019-06-08T15:51:10.299Z,6.00
2019-06-08T15:53:43.208Z,2.80
2019-06-08T15:56:18.699Z,3.73
2019-06-08T15:58:49.908Z,4.80
2019-06-08T16:01:29.390Z,4.30
2019-06-08T16:04:04.022Z,2.77
2019-06-08T16:06:36.390Z,3.33
2019-06-08T16:09:12.382Z,6.47
2019-06-08T16:11:46.469Z,2.20
2019-06-08T16:14:36.520Z,2.20
2019-06-08T16:17:07.922Z,5.53
2019-06-08T16:19:40.578Z,2.80
2019-06-08T16:22:14.315Z,3.10
2019-06-08T16:24:47.099Z,4.10
2019-06-08T16:27:20.087Z,2.40
2019-06-08T16:29:53.230Z,4.00
2019-06-08T16:32:25.133Z,3.67
2019-06-08T16:34:59.167Z,3.73
2019-06-08T16:37:33.507Z,4.07
2019-06-08T16:40:06.746Z,6.93
2019-06-08T16:42:41.185Z,3.10
2019-06-08T16:45:15.378Z,3.93
2019-06-08T16:47:49.483Z,4.03
2019-06-08T16:50:25.079Z,5.97
2019-06-08T16:52:59.043Z,3.23
2019-06-08T16:55:34.005Z,4.30
2019-06-08T16:58:07.145Z,3.13
2019-06-08T17:00:42.261Z,1.37
2019-06-08T17:03:17.747Z,2.83
2019-06-08T17:05:49.337Z,2.47
2019-06-08T17:08:21.092Z,1.93
2019-06-08T17:10:54.275Z,2.43
2019-06-08T17:13:26.340Z,6.70
2019-06-08T17:15:59.279Z,3.97
2019-06-08T17:18:32.348Z,2.90
2019-06-08T17:21:05.749Z,5.97
2019-06-08T17:23:38.465Z,4.40
2019-06-08T17:26:10.325Z,2.00
2019-06-08T17:28:42.904Z,3.30
2019-06-08T17:31:14.215Z,4.23
2019-06-08T17:33:46.350Z,2.63
2019-06-08T17:36:20.441Z,2.07
2019-06-08T17:38:52.510Z,4.10
2019-06-08T17:41:27.361Z,4.73
2019-06-08T17:44:00.716Z,4.37
2019-06-08T17:46:34.526Z,5.00
2019-06-08T17:49:08.767Z,4.20
2019-06-08T17:51:44.406Z,5.33
2019-06-08T17:54:15.793Z,3.97
2019-06-08T17:56:49.523Z,5.70
2019-06-08T17:59:23.491Z,1.90
2019-06-08T18:01:59.578Z,2.30
2019-06-08T18:04:33.504Z,1.53
2019-06-08T18:07:07.550Z,3.03
2019-06-08T18:09:42.277Z,2.30
2019-06-08T18:12:18.859Z,1.87
2019-06-08T18:14:51.582Z,3.67
2019-06-08T18:17:27.835Z,2.07
2019-06-08T18:20:02.036Z,3.73
2019-06-08T18:22:38.683Z,2.83
2019-06-08T18:25:09.873Z,2.27
2019-06-08T18:28:01.793Z,2.73
2019-06-08T18:30:20.013Z,2.10
2019-06-08T18:32:52.713Z,2.53
2019-06-08T18:35:27.760Z,3.57
2019-06-08T18:37:59.779Z,5.43
2019-06-08T18:40:32.733Z,2.00
2019-06-08T18:43:07.588Z,3.20
2019-06-08T18:45:42.432Z,3.60
2019-06-08T18:48:17.589Z,2.03
2019-06-08T18:50:51.464Z,7.33
2019-06-08T18:53:22.670Z,4.20
2019-06-08T18:55:57.971Z,3.43
2019-06-08T18:58:29.892Z,3.67
2019-06-08T19:01:03.893Z,4.60
2019-06-08T19:03:42.292Z,5.60
2019-06-08T19:06:12.252Z,4.03
2019-06-08T19:08:49.208Z,2.47
2019-06-08T19:11:20.097Z,1.57
2019-06-08T19:13:54.234Z,3.07
2019-06-08T19:16:29.484Z,3.90
2019-06-08T19:19:03.030Z,1.90
2019-06-08T19:21:37.667Z,7.47
2019-06-08T19:24:11.858Z,2.80
2019-06-08T19:26:45.955Z,1.47
2019-06-08T19:29:19.396Z,1.60
2019-06-08T19:31:53.905Z,3.93
2019-06-08T19:34:29.050Z,2.20
2019-06-08T19:37:00.988Z,2.87
2019-06-08T19:39:33.979Z,5.60
2019-06-08T19:42:07.990Z,2.97
2019-06-08T19:44:50.556Z,2.70
2019-06-08T19:47:17.624Z,3.27
2019-06-08T19:49:54.455Z,4.53
2019-06-08T19:52:24.972Z,2.77
2019-06-08T19:54:58.148Z,3.87
2019-06-08T19:57:30.013Z,5.07
2019-06-08T20:00:01.982Z,4.47
2019-06-08T20:02:36.302Z,2.17
2019-06-08T20:05:11.029Z,3.17
2019-06-08T20:07:44.928Z,2.07
2019-06-08T20:10:18.242Z,2.63
2019-06-08T20:12:51.638Z,7.00
2019-06-08T20:15:23.424Z,3.73
2019-06-08T20:17:57.494Z,3.60
2019-06-08T20:20:32.261Z,2.67
2019-06-08T20:23:18.113Z,1.93
2019-06-08T20:25:52.065Z,6.50
2019-06-08T20:28:28.303Z,2.63
2019-06-08T20:31:00.715Z,2.53
2019-06-08T20:33:34.335Z,3.30
2019-06-08T20:36:08.342Z,2.60
2019-06-08T20:38:43.741Z,2.70
2019-06-08T20:41:18.276Z,4.20
2019-06-08T20:43:53.661Z,6.40
2019-06-08T20:46:28.673Z,2.20
2019-06-08T20:49:02.351Z,3.20
2019-06-08T20:51:34.310Z,2.23
2019-06-08T20:54:10.012Z,4.00
2019-06-08T20:56:43.020Z,2.70
2019-06-08T20:59:29.227Z,3.60
2019-06-08T21:01:54.338Z,3.40
2019-06-08T21:04:27.662Z,3.47
2019-06-08T21:07:01.393Z,5.30
2019-06-08T21:09:36.965Z,2.97
2019-06-08T21:12:10.495Z,7.70
2019-06-08T21:14:45.242Z,3.73
2019-06-08T21:17:20.456Z,4.33
2019-06-08T21:19:55.619Z,3.67
2019-06-08T21:22:28.734Z,3.67
2019-06-08T21:25:01.493Z,3.87
2019-06-08T21:27:34.384Z,2.40
2019-06-08T21:30:19.897Z,2.57
2019-06-08T21:32:41.587Z,2.83
2019-06-08T21:35:18.188Z,4.30
2019-06-08T21:37:51.462Z,2.70
2019-06-08T21:40:28.126Z,5.37
2019-06-08T21:43:01.634Z,6.63
2019-06-08T21:45:34.190Z,3.90
2019-06-08T21:48:07.717Z,5.80
2019-06-08T21:50:41.641Z,5.40
2019-06-08T21:53:18.087Z,7.27
2019-06-08T21:55:50.687Z,3.13
2019-06-08T21:58:24.108Z,4.03
2019-06-08T22:00:59.148Z,4.60
2019-06-08T22:03:31.845Z,6.90
2019-06-08T22:06:07.849Z,3.00
2019-06-08T22:08:39.388Z,4.67
2019-06-08T22:11:14.517Z,3.40
2019-06-08T22:13:47.692Z,2.60
2019-06-08T22:16:22.621Z,4.60
2019-06-08T22:18:59.796Z,3.10
2019-06-08T22:21:31.948Z,3.10
2019-06-08T22:24:03.827Z,3.30
2019-06-08T22:26:36.974Z,3.03
2019-06-08T22:29:09.999Z,4.00
2019-06-08T22:31:43.742Z,6.17
2019-06-08T22:34:17.440Z,5.03
2019-06-08T22:36:52.586Z,6.57
2019-06-08T22:39:24.691Z,1.53
2019-06-08T22:42:01.193Z,4.30
2019-06-08T22:44:33.333Z,3.70
2019-06-08T22:47:08.095Z,9.63
2019-06-08T22:49:42.618Z,5.57
2019-06-08T22:52:18.494Z,2.30
2019-06-08T22:54:49.855Z,2.20
2019-06-08T22:57:21.646Z,3.10
2019-06-08T22:59:55.773Z,4.03
2019-06-08T23:02:27.895Z,3.57
2019-06-08T23:05:05.723Z,1.90
2019-06-08T23:07:39.597Z,4.23
2019-06-08T23:10:12.775Z,2.90
2019-06-08T23:12:47.229Z,3.47
2019-06-08T23:15:20.238Z,3.93
2019-06-08T23:17:52.856Z,2.10
2019-06-08T23:20:24.816Z,4.50
2019-06-08T23:22:58.645Z,3.60
2019-06-08T23:25:31.827Z,5.47
2019-06-08T23:28:09.718Z,4.33
2019-06-08T23:30:41.220Z,3.27
2019-06-08T23:33:14.789Z,2.73
2019-06-08T23:36:30.534Z,2.70
2019-06-08T23:38:22.920Z,2.23
2019-06-08T23:40:59.386Z,7.43
2019-06-08T23:43:31.937Z,2.20
2019-06-08T23:46:08.147Z,6.63
2019-06-08T23:48:42.008Z,2.83
2019-06-08T23:51:17.911Z,5.43
2019-06-08T23:53:52.900Z,4.80
2019-06-08T23:56:27.577Z,3.67
2019-06-08T23:59:03.774Z,6.87
